Back to Top

Language: 

My Weather Underground Personal Weather Station Historical Data with Graphs...

Delerius Weather Station Historical Data
Daily Summary for July 20, 2017 Units:  Metric    English   Both
« Previous Day
Next Day »
Daily Weekly Monthly Yearly Custom
  High: Low: Average:
Temperature: 19.2 °C 12.9 °C 15.9 °C
Dew Point: 17.3 °C 7.6 °C 11.9 °C
Humidity: 95 % 53 % 79 %
Wind Speed: 22.5 km/h 0 km/h 10.5 km/h
Wind Gust: 40.2 km/h - -
Wind:- - West
Pressure: 1007.7 hPa 1002.3 hPa -
Precipitation: 5.59 mm    
Historical Graphs
 
 
Tabular Data for July 20, 2017
Time Temperature Dew Point Pressure Wind Wind Speed Wind Gust Humidity Rainfall Rate (Hourly) solar Conditions
00:02 19.2 °C 17.3 °C 1002.3 hPa WSW 6.4 km/h 11.3 km/h 89 % 0 mm 0 W/m2
00:07 19.2 °C 17.3 °C 1002.6 hPa WSW 8 km/h 11.3 km/h 89 % 0 mm 0 W/m2
00:12 19.2 °C 17.3 °C 1002.6 hPa WSW 8 km/h 12.9 km/h 89 % 0 mm 0 W/m2
00:17 19.1 °C 17.2 °C 1002.6 hPa WSW 6.4 km/h 12.9 km/h 89 % 0 mm 0 W/m2
00:22 19.1 °C 17.2 °C 1002.6 hPa WSW 4.8 km/h 12.9 km/h 89 % 0 mm 0 W/m2
00:27 19.1 °C 17.1 °C 1002.6 hPa West 4.8 km/h 9.7 km/h 88 % 0 mm 0 W/m2
00:32 19.1 °C 17.2 °C 1002.6 hPa WSW 3.2 km/h 9.7 km/h 89 % 0 mm 0 W/m2
00:37 19.1 °C 17.2 °C 1002.6 hPa WSW 1.6 km/h 9.7 km/h 89 % 0 mm 0 W/m2
00:42 19 °C 17.2 °C 1002.6 hPa WSW 1.6 km/h 9.7 km/h 89 % 0 mm 0 W/m2
00:47 18.9 °C 17.1 °C 1002.6 hPa WSW 1.6 km/h 6.4 km/h 89 % 0 mm 0 W/m2
00:52 18.9 °C 17.1 °C 1002.6 hPa WSW 1.6 km/h 6.4 km/h 89 % 0 mm 0 W/m2
00:57 18.9 °C 17.1 °C 1002.6 hPa Calm   4.8 km/h 89 % 0 mm 0 W/m2
01:02 18.8 °C 16.9 °C 1002.6 hPa WSW 1.6 km/h 8 km/h 89 % 0 mm 0 W/m2
01:07 18.8 °C 16.9 °C 1002.6 hPa WSW 1.6 km/h 8 km/h 89 % 0 mm 0 W/m2
01:12 18.8 °C 16.9 °C 1002.6 hPa WSW 1.6 km/h 6.4 km/h 89 % 0 mm 0 W/m2
01:17 18.8 °C 16.9 °C 1002.6 hPa Calm   4.8 km/h 89 % 0 mm 0 W/m2
01:22 18.8 °C 16.9 °C 1002.6 hPa Calm   3.2 km/h 89 % 0 mm 0 W/m2
01:27 18.8 °C 16.9 °C 1002.6 hPa Calm   3.2 km/h 89 % 0 mm 0 W/m2
01:32 18.8 °C 16.9 °C 1002.3 hPa SW 1.6 km/h 8 km/h 89 % 0 mm 0 W/m2
01:37 18.7 °C 16.8 °C 1002.3 hPa WSW 4.8 km/h 11.3 km/h 89 % 0 mm 0 W/m2
01:42 18.7 °C 16.7 °C 1002.3 hPa WSW 8 km/h 11.3 km/h 88 % 0 mm 0 W/m2
01:47 18.7 °C 16.7 °C 1002.6 hPa WSW 6.4 km/h 11.3 km/h 88 % 0 mm 0 W/m2
01:52 18.6 °C 16.6 °C 1002.6 hPa WSW 4.8 km/h 9.7 km/h 88 % 0 mm 0 W/m2
01:57 18.6 °C 16.6 °C 1002.6 hPa West 4.8 km/h 11.3 km/h 88 % 0 mm 0 W/m2
02:02 18.6 °C 16.4 °C 1002.3 hPa West 4.8 km/h 12.9 km/h 87 % 0 mm 0 W/m2
02:07 18.6 °C 16.4 °C 1002.3 hPa WNW 4.8 km/h 12.9 km/h 87 % 0 mm 0 W/m2
02:12 18.6 °C 16.4 °C 1002.3 hPa WNW 4.8 km/h 12.9 km/h 87 % 0 mm 0 W/m2
02:17 18.6 °C 16.2 °C 1002.3 hPa WNW 6.4 km/h 12.9 km/h 86 % 0 mm 0 W/m2
02:22 18.6 °C 16.2 °C 1002.3 hPa WNW 6.4 km/h 11.3 km/h 86 % 0 mm 0 W/m2
02:27 18.6 °C 16.2 °C 1002.3 hPa WNW 8 km/h 11.3 km/h 86 % 0 mm 0 W/m2
02:32 18.5 °C 16.1 °C 1002.3 hPa West 9.7 km/h 17.7 km/h 86 % 0 mm 0 W/m2
02:37 18.4 °C 16.2 °C 1002.3 hPa West 9.7 km/h 17.7 km/h 87 % 0 mm 0 W/m2
02:42 18.3 °C 15.9 °C 1002.3 hPa West 11.3 km/h 22.5 km/h 86 % 0 mm 0 W/m2
02:47 18.2 °C 15.6 °C 1002.3 hPa WSW 12.9 km/h 22.5 km/h 85 % 0 mm 0 W/m2
02:52 18.2 °C 15.6 °C 1002.3 hPa WSW 12.9 km/h 22.5 km/h 85 % 0 mm 0 W/m2
02:57 18.1 °C 15.3 °C 1002.3 hPa WSW 11.3 km/h 19.3 km/h 84 % 0 mm 0 W/m2
03:02 18.1 °C 15.3 °C 1002.3 hPa West 11.3 km/h 19.3 km/h 84 % 0 mm 0 W/m2
03:07 18.1 °C 15.3 °C 1002.3 hPa West 9.7 km/h 19.3 km/h 84 % 0 mm 0 W/m2
03:12 18.1 °C 15.3 °C 1002.3 hPa WSW 9.7 km/h 16.1 km/h 84 % 0 mm 0 W/m2
03:17 17.9 °C 15.2 °C 1002.3 hPa WSW 9.7 km/h 16.1 km/h 84 % 0 mm 0 W/m2
03:22 17.9 °C 15.2 °C 1002.3 hPa WSW 9.7 km/h 14.5 km/h 84 % 0 mm 0 W/m2
03:27 17.8 °C 15.4 °C 1002.3 hPa WSW 9.7 km/h 14.5 km/h 86 % 0.25 mm 0 W/m2
03:32 17.7 °C 15.5 °C 1002.3 hPa West 6.4 km/h 14.5 km/h 87 % 0.25 mm 0 W/m2
03:37 17.6 °C 15.4 °C 1002.3 hPa WSW 1.6 km/h 9.7 km/h 87 % 0.25 mm 0 W/m2
03:42 17.5 °C 15.5 °C 1002.3 hPa Calm   6.4 km/h 88 % 0.25 mm 0 W/m2
03:47 17.4 °C 15.4 °C 1002.3 hPa West 1.6 km/h 6.4 km/h 88 % 0.25 mm 0 W/m2
03:48 17.3 °C 15.3 °C 1002.3 hPa West 1.6 km/h 6.4 km/h 88 % 0.25 mm 0 W/m2
03:53 17.3 °C 15.3 °C 1002.3 hPa Calm   3.2 km/h 88 % 0.25 mm 0 W/m2
03:58 17.2 °C 15.2 °C 1002.6 hPa Calm   3.2 km/h 88 % 0.25 mm 0 W/m2
04:03 17.1 °C 15.3 °C 1002.3 hPa Calm   3.2 km/h 89 % 0.25 mm 0 W/m2
04:08 17.1 °C 15.3 °C 1002.3 hPa Calm   3.2 km/h 89 % 0.25 mm 0 W/m2
04:13 17 °C 15.2 °C 1002.3 hPa Calm   6.4 km/h 89 % 0.25 mm 0 W/m2
04:18 16.9 °C 15.1 °C 1002.3 hPa West 1.6 km/h 6.4 km/h 89 % 0.25 mm 0 W/m2
04:23 16.8 °C 15 °C 1002.3 hPa West 1.6 km/h 8 km/h 89 % 0.25 mm 0 W/m2
04:28 16.8 °C 15 °C 1002.3 hPa WNW 4.8 km/h 11.3 km/h 89 % 0 mm 0 W/m2
04:33 16.7 °C 14.9 °C 1002.3 hPa WNW 6.4 km/h 14.5 km/h 89 % 0 mm 0 W/m2
04:38 16.6 °C 14.9 °C 1002.3 hPa West 8 km/h 16.1 km/h 90 % 0 mm 0 W/m2
04:43 16.6 °C 14.9 °C 1002.3 hPa West 8 km/h 16.1 km/h 90 % 0 mm 0 W/m2
04:48 16.6 °C 14.9 °C 1002.3 hPa WSW 8 km/h 16.1 km/h 90 % 0 mm 0 W/m2
04:53 16.4 °C 14.8 °C 1002.3 hPa WSW 9.7 km/h 19.3 km/h 90 % 0 mm 0 W/m2
04:58 16.4 °C 14.8 °C 1002.3 hPa WSW 9.7 km/h 19.3 km/h 90 % 0 mm 0 W/m2
05:03 16.3 °C 14.7 °C 1002.3 hPa West 9.7 km/h 17.7 km/h 90 % 0 mm 0 W/m2
05:08 16.2 °C 14.6 °C 1002.3 hPa West 8 km/h 16.1 km/h 90 % 0 mm 0 W/m2
05:13 16.2 °C 14.6 °C 1002.3 hPa WNW 6.4 km/h 12.9 km/h 90 % 0 mm 0 W/m2
05:18 16.2 °C 14.6 °C 1002.3 hPa West 4.8 km/h 11.3 km/h 90 % 0 mm 0 W/m2
05:23 16.1 °C 14.4 °C 1002.3 hPa WNW 6.4 km/h 14.5 km/h 90 % 0 mm 0 W/m2
05:28 16.1 °C 14.4 °C 1002.3 hPa WNW 8 km/h 14.5 km/h 90 % 0 mm 0 W/m2
05:33 16.1 °C 14.6 °C 1002.3 hPa West 4.8 km/h 11.3 km/h 91 % 0 mm 0 W/m2
05:38 16.1 °C 14.4 °C 1002.6 hPa West 1.6 km/h 8 km/h 90 % 0 mm 0 W/m2
05:43 16.1 °C 14.4 °C 1002.6 hPa West 1.6 km/h 8 km/h 90 % 0 mm 0 W/m2
05:48 16 °C 14.3 °C 1002.6 hPa West 1.6 km/h 8 km/h 90 % 0 mm 0 W/m2
05:53 15.9 °C 14.3 °C 1002.6 hPa West 3.2 km/h 12.9 km/h 90 % 0 mm 0 W/m2
05:58 15.9 °C 14.3 °C 1002.6 hPa WNW 6.4 km/h 12.9 km/h 90 % 0 mm 5 W/m2
06:03 15.8 °C 14.2 °C 1002.6 hPa West 6.4 km/h 12.9 km/h 90 % 0 mm 14 W/m2
06:08 15.8 °C 14.2 °C 1002.6 hPa West 8 km/h 20.9 km/h 90 % 0 mm 25 W/m2
06:13 15.7 °C 14.1 °C 1002.6 hPa West 11.3 km/h 20.9 km/h 90 % 0 mm 37 W/m2
06:18 15.6 °C 13.9 °C 1002.6 hPa West 9.7 km/h 20.9 km/h 90 % 0 mm 39 W/m2
06:23 15.6 °C 13.9 °C 1002.6 hPa West 9.7 km/h 17.7 km/h 90 % 0 mm 58 W/m2
06:28 15.5 °C 13.9 °C 1002.9 hPa West 12.9 km/h 20.9 km/h 90 % 0 mm 54 W/m2
06:33 15.4 °C 13.8 °C 1002.6 hPa West 12.9 km/h 20.9 km/h 90 % 0 mm 93 W/m2
06:38 15.4 °C 13.8 °C 1002.6 hPa West 12.9 km/h 22.5 km/h 90 % 0 mm 121 W/m2
06:43 15.4 °C 13.8 °C 1002.6 hPa WNW 14.5 km/h 29 km/h 90 % 0 mm 104 W/m2
06:48 15.3 °C 13.5 °C 1002.9 hPa WNW 16.1 km/h 29 km/h 89 % 0 mm 107 W/m2
06:53 15.3 °C 13.5 °C 1002.9 hPa WNW 17.7 km/h 25.7 km/h 89 % 0 mm 120 W/m2
06:58 15.3 °C 13.5 °C 1002.9 hPa West 16.1 km/h 25.7 km/h 89 % 0 mm 163 W/m2
07:03 15.4 °C 13.6 °C 1002.9 hPa WNW 14.5 km/h 24.1 km/h 89 % 0 mm 155 W/m2
07:08 15.5 °C 13.5 °C 1002.9 hPa West 14.5 km/h 29 km/h 88 % 0 mm 81 W/m2
07:13 15.5 °C 13.3 °C 1002.9 hPa West 16.1 km/h 30.6 km/h 87 % 0 mm 44 W/m2
07:18 15.3 °C 13.2 °C 1003.3 hPa WNW 17.7 km/h 32.2 km/h 87 % 0 mm 25 W/m2
07:24 15.2 °C 13.2 °C 1003.6 hPa WNW 19.3 km/h 32.2 km/h 88 % 0.25 mm 18 W/m2
07:29 15.1 °C 13.3 °C 1003.6 hPa WNW 16.1 km/h 25.7 km/h 89 % 0.76 mm 12 W/m2
07:34 14.9 °C 13.3 °C 1003.3 hPa WNW 14.5 km/h 25.7 km/h 90 % 1.27 mm 11 W/m2
07:39 14.7 °C 13.2 °C 1002.9 hPa NW 16.1 km/h 25.7 km/h 91 % 1.52 mm 9 W/m2
07:44 14.5 °C 13.2 °C 1002.9 hPa WNW 14.5 km/h 25.7 km/h 92 % 2.03 mm 9 W/m2
07:49 14.4 °C 13.1 °C 1003.3 hPa WNW 12.9 km/h 24.1 km/h 92 % 2.29 mm 12 W/m2
07:54 14.3 °C 13 °C 1002.9 hPa WNW 12.9 km/h 24.1 km/h 92 % 3.05 mm 19 W/m2
07:59 14.2 °C 13.1 °C 1003.3 hPa WNW 11.3 km/h 19.3 km/h 93 % 3.56 mm 30 W/m2
08:04 14.1 °C 13 °C 1002.9 hPa WNW 12.9 km/h 22.5 km/h 93 % 4.06 mm 37 W/m2
08:09 14.1 °C 13 °C 1002.9 hPa WNW 12.9 km/h 24.1 km/h 93 % 4.32 mm 47 W/m2
08:14 14.1 °C 13.2 °C 1002.9 hPa WNW 12.9 km/h 24.1 km/h 94 % 4.32 mm 58 W/m2
08:19 13.9 °C 12.9 °C 1002.9 hPa WNW 14.5 km/h 24.1 km/h 94 % 4.32 mm 93 W/m2
08:24 13.8 °C 12.8 °C 1002.9 hPa WNW 14.5 km/h 24.1 km/h 94 % 4.32 mm 107 W/m2
08:29 13.8 °C 12.8 °C 1002.9 hPa WNW 12.9 km/h 24.1 km/h 94 % 3.81 mm 111 W/m2
08:34 13.8 °C 12.8 °C 1002.9 hPa WNW 12.9 km/h 22.5 km/h 94 % 3.3 mm 148 W/m2
08:39 13.8 °C 12.8 °C 1003.3 hPa WNW 11.3 km/h 22.5 km/h 94 % 3.05 mm 200 W/m2
08:44 14 °C 13.2 °C 1003.3 hPa West 9.7 km/h 17.7 km/h 95 % 2.29 mm 207 W/m2
08:47 14 °C 13.2 °C 1003.3 hPa West 8 km/h 16.1 km/h 95 % 2.29 mm 190 W/m2
08:52 14.1 °C 13.3 °C 1003.3 hPa WNW 8 km/h 16.1 km/h 95 % 1.78 mm 179 W/m2
08:57 14.2 °C 13.4 °C 1003.3 hPa WNW 9.7 km/h 16.1 km/h 95 % 1.27 mm 146 W/m2
09:02 14.1 °C 13.2 °C 1003.3 hPa WNW 9.7 km/h 17.7 km/h 94 % 0.51 mm 134 W/m2
09:07 14.2 °C 13.2 °C 1003.6 hPa WNW 9.7 km/h 19.3 km/h 94 % 0.51 mm 113 W/m2
09:12 14.1 °C 13.2 °C 1003.6 hPa WNW 9.7 km/h 19.3 km/h 94 % 0.25 mm 83 W/m2
09:17 14.1 °C 13.2 °C 1003.6 hPa WNW 9.7 km/h 16.1 km/h 94 % 0.25 mm 79 W/m2
09:22 14 °C 13.1 °C 1003.9 hPa WNW 9.7 km/h 17.7 km/h 94 % 0 mm 72 W/m2
09:27 14.1 °C 13.2 °C 1003.9 hPa WNW 11.3 km/h 22.5 km/h 94 % 0 mm 58 W/m2
09:32 13.9 °C 12.9 °C 1003.9 hPa WNW 11.3 km/h 22.5 km/h 94 % 0 mm 98 W/m2
09:37 13.9 °C 12.9 °C 1003.9 hPa WNW 12.9 km/h 20.9 km/h 94 % 0 mm 118 W/m2
09:42 13.8 °C 12.8 °C 1003.9 hPa WNW 12.9 km/h 24.1 km/h 94 % 0 mm 127 W/m2
09:47 13.8 °C 12.8 °C 1003.9 hPa WNW 11.3 km/h 24.1 km/h 94 % 0 mm 125 W/m2
09:52 13.8 °C 12.8 °C 1003.9 hPa WNW 11.3 km/h 25.7 km/h 94 % 0.25 mm 107 W/m2
09:53 13.8 °C 12.8 °C 1003.9 hPa WNW 11.3 km/h 25.7 km/h 94 % 0.25 mm 111 W/m2
09:58 13.8 °C 12.7 °C 1003.9 hPa WNW 12.9 km/h 25.7 km/h 93 % 0.25 mm 114 W/m2
10:03 13.8 °C 12.8 °C 1003.9 hPa WNW 12.9 km/h 24.1 km/h 94 % 0.25 mm 120 W/m2
10:08 13.8 °C 12.7 °C 1003.9 hPa WNW 14.5 km/h 24.1 km/h 93 % 0.25 mm 141 W/m2
10:13 13.7 °C 12.6 °C 1003.9 hPa WNW 14.5 km/h 24.1 km/h 93 % 0.25 mm 137 W/m2
10:18 13.7 °C 12.6 °C 1003.9 hPa WNW 14.5 km/h 24.1 km/h 93 % 0.25 mm 153 W/m2
10:23 13.7 °C 12.6 °C 1003.9 hPa WNW 14.5 km/h 22.5 km/h 93 % 0.25 mm 155 W/m2
10:28 13.7 °C 12.4 °C 1004.3 hPa WNW 14.5 km/h 22.5 km/h 92 % 0.25 mm 171 W/m2
10:33 13.8 °C 12.7 °C 1004.3 hPa WNW 11.3 km/h 22.5 km/h 93 % 0.25 mm 174 W/m2
10:38 13.8 °C 12.5 °C 1004.3 hPa WNW 11.3 km/h 17.7 km/h 92 % 0.25 mm 183 W/m2
10:43 13.9 °C 12.6 °C 1004.3 hPa WNW 11.3 km/h 20.9 km/h 92 % 0.25 mm 162 W/m2
10:48 13.8 °C 12.5 °C 1004.6 hPa West 14.5 km/h 32.2 km/h 92 % 0.25 mm 142 W/m2
10:53 13.7 °C 12.4 °C 1004.3 hPa West 14.5 km/h 32.2 km/h 92 % 0 mm 186 W/m2
10:58 13.7 °C 12.3 °C 1004.3 hPa WNW 11.3 km/h 17.7 km/h 91 % 0 mm 206 W/m2
11:03 13.7 °C 12.3 °C 1004.3 hPa WNW 11.3 km/h 20.9 km/h 91 % 0 mm 200 W/m2
11:08 13.7 °C 12.3 °C 1004.3 hPa WNW 12.9 km/h 30.6 km/h 91 % 0 mm 214 W/m2
11:13 13.7 °C 12.3 °C 1004.6 hPa WNW 14.5 km/h 30.6 km/h 91 % 0 mm 220 W/m2
11:18 13.7 °C 12.1 °C 1004.6 hPa West 14.5 km/h 22.5 km/h 90 % 0 mm 141 W/m2
11:23 13.6 °C 12 °C 1004.6 hPa West 14.5 km/h 22.5 km/h 90 % 0.25 mm 163 W/m2
11:28 13.6 °C 12 °C 1004.6 hPa WNW 14.5 km/h 24.1 km/h 90 % 0.25 mm 183 W/m2
11:33 13.6 °C 12 °C 1004.6 hPa WNW 14.5 km/h 24.1 km/h 90 % 0.25 mm 232 W/m2
11:38 13.6 °C 12 °C 1004.6 hPa WNW 14.5 km/h 25.7 km/h 90 % 0.25 mm 251 W/m2
11:43 13.7 °C 12.1 °C 1004.6 hPa WNW 16.1 km/h 25.7 km/h 90 % 0.25 mm 200 W/m2
11:48 13.7 °C 11.9 °C 1005 hPa WNW 16.1 km/h 29 km/h 89 % 0.25 mm 149 W/m2
11:53 13.6 °C 11.8 °C 1004.6 hPa WNW 14.5 km/h 29 km/h 89 % 0.51 mm 100 W/m2
11:58 13.6 °C 11.8 °C 1004.6 hPa WNW 14.5 km/h 25.7 km/h 89 % 0.51 mm 113 W/m2
12:03 13.4 °C 11.8 °C 1004.6 hPa WNW 14.5 km/h 25.7 km/h 90 % 0.51 mm 162 W/m2
12:06 13.4 °C 11.8 °C 1004.6 hPa WNW 14.5 km/h 25.7 km/h 90 % 0.51 mm 214 W/m2
12:11 13.4 °C 11.8 °C 1004.6 hPa WNW 14.5 km/h 25.7 km/h 90 % 0.51 mm 258 W/m2
12:15 13.4 °C 11.8 °C 1004.6 hPa WNW 14.5 km/h 25.7 km/h 90 % 0.51 mm 151 W/m2
12:20 13.5 °C 11.9 °C 1004.6 hPa WNW 14.5 km/h 24.1 km/h 90 % 0.51 mm 218 W/m2
12:25 13.4 °C 11.8 °C 1005 hPa WNW 14.5 km/h 24.1 km/h 90 % 0.51 mm 232 W/m2
12:31 13.6 °C 12 °C 1005 hPa WNW 14.5 km/h 24.1 km/h 90 % 0.51 mm 236 W/m2
12:36 13.6 °C 12 °C 1005 hPa WNW 12.9 km/h 24.1 km/h 90 % 0.51 mm 248 W/m2
12:41 13.6 °C 12 °C 1004.6 hPa WNW 12.9 km/h 24.1 km/h 90 % 0.51 mm 216 W/m2
12:46 13.7 °C 11.9 °C 1004.6 hPa WNW 12.9 km/h 24.1 km/h 89 % 0.51 mm 272 W/m2
12:51 13.8 °C 12.2 °C 1005 hPa WNW 11.3 km/h 22.5 km/h 90 % 0.25 mm 325 W/m2
12:56 14 °C 12.4 °C 1005 hPa WNW 9.7 km/h 17.7 km/h 90 % 0.25 mm 420 W/m2
13:01 14.2 °C 12.4 °C 1005 hPa NW 11.3 km/h 19.3 km/h 89 % 0.25 mm 313 W/m2
13:06 14.4 °C 12.4 °C 1005 hPa WNW 11.3 km/h 22.5 km/h 88 % 0 mm 418 W/m2
13:11 14.6 °C 12.4 °C 1005 hPa WNW 12.9 km/h 25.7 km/h 87 % 0 mm 513 W/m2
13:16 14.8 °C 12.5 °C 1005 hPa WNW 12.9 km/h 25.7 km/h 86 % 0 mm 408 W/m2
13:21 15.1 °C 12.6 °C 1005 hPa WNW 11.3 km/h 20.9 km/h 85 % 0 mm 355 W/m2
13:26 15.2 °C 12.7 °C 1005.3 hPa West 11.3 km/h 32.2 km/h 85 % 0 mm 450 W/m2
13:31 15.3 °C 11.9 °C 1005.3 hPa West 16.1 km/h 33.8 km/h 80 % 0 mm 450 W/m2
13:36 15.4 °C 11.8 °C 1005.3 hPa WNW 17.7 km/h 33.8 km/h 79 % 0 mm 362 W/m2
13:41 15.4 °C 11.4 °C 1005.3 hPa WNW 19.3 km/h 32.2 km/h 77 % 0 mm 318 W/m2
13:46 15.4 °C 11.2 °C 1005.3 hPa West 19.3 km/h 40.2 km/h 76 % 0 mm 330 W/m2
13:51 15.4 °C 11.2 °C 1005.3 hPa West 16.1 km/h 40.2 km/h 76 % 0 mm 388 W/m2
13:56 15.4 °C 11.4 °C 1005.3 hPa WNW 14.5 km/h 29 km/h 77 % 0 mm 394 W/m2
14:01 15.6 °C 11.2 °C 1005.3 hPa WNW 16.1 km/h 25.7 km/h 75 % 0 mm 480 W/m2
14:06 15.8 °C 11.6 °C 1005.3 hPa WNW 14.5 km/h 25.7 km/h 76 % 0 mm 650 W/m2
14:11 16 °C 11.4 °C 1005.3 hPa WNW 16.1 km/h 30.6 km/h 74 % 0 mm 329 W/m2
14:16 15.9 °C 11.1 °C 1005.3 hPa West 16.1 km/h 30.6 km/h 73 % 0 mm 195 W/m2
14:21 15.8 °C 11.2 °C 1005.3 hPa WNW 14.5 km/h 24.1 km/h 74 % 0 mm 327 W/m2
14:26 15.8 °C 11.4 °C 1005.3 hPa WNW 14.5 km/h 24.1 km/h 75 % 0 mm 369 W/m2
14:31 15.9 °C 11.3 °C 1005.6 hPa WNW 12.9 km/h 24.1 km/h 74 % 0 mm 204 W/m2
14:37 15.9 °C 11.3 °C 1005.6 hPa WNW 11.3 km/h 22.5 km/h 74 % 0 mm 176 W/m2
14:42 15.7 °C 10.4 °C 1005.6 hPa West 12.9 km/h 25.7 km/h 71 % 0 mm 309 W/m2
14:47 15.7 °C 10.2 °C 1005.6 hPa West 17.7 km/h 32.2 km/h 70 % 0 mm 320 W/m2
14:52 15.6 °C 9.9 °C 1006 hPa West 19.3 km/h 37 km/h 69 % 0 mm 281 W/m2
14:57 15.6 °C 10.2 °C 1006 hPa WNW 19.3 km/h 37 km/h 70 % 0 mm 264 W/m2
15:02 15.6 °C 10.2 °C 1006 hPa West 17.7 km/h 32.2 km/h 70 % 0 mm 373 W/m2
15:07 15.5 °C 9.6 °C 1006 hPa West 20.9 km/h 37 km/h 68 % 0 mm 515 W/m2
15:12 15.7 °C 9.8 °C 1006 hPa West 22.5 km/h 38.6 km/h 68 % 0 mm 515 W/m2
15:17 15.9 °C 9.8 °C 1006.3 hPa WNW 20.9 km/h 38.6 km/h 67 % 0 mm 536 W/m2
15:22 16.1 °C 9.9 °C 1006 hPa WNW 19.3 km/h 33.8 km/h 67 % 0 mm 417 W/m2
15:27 16.2 °C 9.8 °C 1006.3 hPa West 17.7 km/h 33.8 km/h 66 % 0 mm 345 W/m2
15:32 16.2 °C 9.6 °C 1006.3 hPa West 16.1 km/h 30.6 km/h 65 % 0 mm 378 W/m2
15:37 16.1 °C 8.8 °C 1006.3 hPa West 17.7 km/h 33.8 km/h 62 % 0 mm 717 W/m2
15:42 16.2 °C 8.4 °C 1006.3 hPa West 19.3 km/h 33.8 km/h 60 % 0 mm 348 W/m2
15:47 16.2 °C 8.7 °C 1006.3 hPa West 19.3 km/h 33.8 km/h 61 % 0 mm 427 W/m2
15:52 16.4 °C 8.8 °C 1006.3 hPa West 19.3 km/h 33.8 km/h 61 % 0 mm 831 W/m2
15:57 16.6 °C 9.1 °C 1006.3 hPa West 17.7 km/h 30.6 km/h 61 % 0 mm 619 W/m2
16:02 16.7 °C 9.1 °C 1006.3 hPa West 16.1 km/h 29 km/h 61 % 0 mm 557 W/m2
16:07 16.7 °C 9.1 °C 1006.3 hPa West 16.1 km/h 24.1 km/h 61 % 0 mm 606 W/m2
16:08 16.8 °C 9.2 °C 1006.3 hPa WNW 16.1 km/h 24.1 km/h 61 % 0 mm 306 W/m2
16:13 16.9 °C 9.3 °C 1006.3 hPa West 16.1 km/h 24.1 km/h 61 % 0 mm 863 W/m2
16:18 17.3 °C 9.7 °C 1006.3 hPa West 14.5 km/h 22.5 km/h 61 % 0 mm 738 W/m2
16:23 17.6 °C 9.5 °C 1006.3 hPa West 14.5 km/h 29 km/h 59 % 0 mm 276 W/m2
16:28 17.4 °C 8.8 °C 1006.3 hPa West 19.3 km/h 33.8 km/h 57 % 0 mm 334 W/m2
16:30 17.4 °C 8.8 °C 1006.3 hPa West 19.3 km/h 33.8 km/h 57 % 0 mm 657 W/m2
16:35 17.6 °C 9 °C 1006.3 hPa West 19.3 km/h 35.4 km/h 57 % 0 mm 752 W/m2
16:40 17.7 °C 9.1 °C 1006.3 hPa West 19.3 km/h 35.4 km/h 57 % 0 mm 682 W/m2
16:45 18.1 °C 9.4 °C 1006.3 hPa WNW 16.1 km/h 35.4 km/h 57 % 0 mm 631 W/m2
16:50 18.3 °C 9.9 °C 1006.3 hPa WNW 11.3 km/h 22.5 km/h 58 % 0 mm 636 W/m2
16:55 18.5 °C 9.6 °C 1006.3 hPa West 12.9 km/h 22.5 km/h 56 % 0 mm 643 W/m2
17:00 18.3 °C 9.4 °C 1006.3 hPa West 14.5 km/h 24.1 km/h 56 % 0 mm 615 W/m2
17:05 18.3 °C 9.4 °C 1006.3 hPa WSW 14.5 km/h 24.1 km/h 56 % 0 mm 589 W/m2
17:10 18.3 °C 9.1 °C 1006.3 hPa West 12.9 km/h 22.5 km/h 55 % 0 mm 606 W/m2
17:15 18.4 °C 8.9 °C 1006.3 hPa West 12.9 km/h 22.5 km/h 54 % 0 mm 615 W/m2
17:20 18.4 °C 9.4 °C 1006.3 hPa West 14.5 km/h 30.6 km/h 56 % 0 mm 561 W/m2
17:25 18.2 °C 9.3 °C 1006.3 hPa WSW 14.5 km/h 30.6 km/h 56 % 0 mm 167 W/m2
17:30 18.1 °C 8.9 °C 1006.3 hPa WSW 14.5 km/h 29 km/h 55 % 0 mm 132 W/m2
17:35 17.8 °C 8.9 °C 1006.3 hPa WSW 14.5 km/h 29 km/h 56 % 0 mm 156 W/m2
17:40 17.6 °C 9 °C 1006.3 hPa West 12.9 km/h 20.9 km/h 57 % 0 mm 142 W/m2
17:45 17.4 °C 9.1 °C 1006.3 hPa WSW 12.9 km/h 20.9 km/h 58 % 0 mm 420 W/m2
17:50 17.5 °C 9.7 °C 1006.3 hPa WSW 9.7 km/h 19.3 km/h 60 % 0 mm 517 W/m2
17:55 17.5 °C 9.2 °C 1006.3 hPa SW 9.7 km/h 16.1 km/h 58 % 0 mm 121 W/m2
18:00 17.3 °C 9.2 °C 1006.3 hPa SW 9.7 km/h 19.3 km/h 59 % 0 mm 139 W/m2
18:05 17.3 °C 9.2 °C 1006.3 hPa WSW 11.3 km/h 19.3 km/h 59 % 0 mm 193 W/m2
18:10 17.4 °C 9.3 °C 1006.3 hPa West 11.3 km/h 17.7 km/h 59 % 0 mm 130 W/m2
18:15 17.4 °C 9.3 °C 1006.3 hPa West 9.7 km/h 17.7 km/h 59 % 0 mm 120 W/m2
18:20 17.4 °C 9.1 °C 1006.3 hPa WSW 9.7 km/h 17.7 km/h 58 % 0 mm 116 W/m2
18:25 17.5 °C 8.9 °C 1006.3 hPa WSW 11.3 km/h 20.9 km/h 57 % 0 mm 397 W/m2
18:31 17.6 °C 9 °C 1006.3 hPa WSW 12.9 km/h 20.9 km/h 57 % 0 mm 123 W/m2
18:36 17.7 °C 9.1 °C 1006.3 hPa West 11.3 km/h 19.3 km/h 57 % 0 mm 371 W/m2
18:41 17.7 °C 9.1 °C 1006.3 hPa WSW 11.3 km/h 19.3 km/h 57 % 0 mm 98 W/m2
18:46 17.5 °C 9.2 °C 1006.3 hPa WSW 11.3 km/h 17.7 km/h 58 % 0 mm 69 W/m2
18:51 17.4 °C 8.8 °C 1006.3 hPa West 11.3 km/h 22.5 km/h 57 % 0 mm 316 W/m2
18:56 17.5 °C 8.9 °C 1006.3 hPa West 14.5 km/h 22.5 km/h 57 % 0 mm 278 W/m2
19:01 17.8 °C 8.9 °C 1006.3 hPa West 14.5 km/h 24.1 km/h 56 % 0 mm 257 W/m2
19:06 17.9 °C 8.7 °C 1006.3 hPa West 12.9 km/h 24.1 km/h 55 % 0 mm 241 W/m2
19:11 17.8 °C 8.4 °C 1006.3 hPa West 12.9 km/h 19.3 km/h 54 % 0 mm 40 W/m2
19:16 17.6 °C 8.7 °C 1006.3 hPa West 11.3 km/h 17.7 km/h 56 % 0 mm 54 W/m2
19:21 17.3 °C 8.4 °C 1006.3 hPa West 11.3 km/h 19.3 km/h 56 % 0 mm 63 W/m2
19:26 17.3 °C 8.2 °C 1006.7 hPa WSW 11.3 km/h 19.3 km/h 55 % 0 mm 40 W/m2
19:31 17.1 °C 8 °C 1006.7 hPa WSW 12.9 km/h 20.9 km/h 55 % 0 mm 149 W/m2
19:36 17.1 °C 8 °C 1006.7 hPa WSW 11.3 km/h 20.9 km/h 55 % 0 mm 165 W/m2
19:41 17.2 °C 8.1 °C 1006.7 hPa WSW 11.3 km/h 17.7 km/h 55 % 0 mm 163 W/m2
19:46 17.2 °C 8.1 °C 1006.7 hPa WSW 11.3 km/h 17.7 km/h 55 % 0 mm 144 W/m2
19:51 17.2 °C 7.8 °C 1006.7 hPa WSW 11.3 km/h 20.9 km/h 54 % 0 mm 132 W/m2
19:56 17.2 °C 7.6 °C 1006.7 hPa WSW 12.9 km/h 20.9 km/h 53 % 0 mm 125 W/m2
20:01 17.2 °C 7.6 °C 1006.7 hPa WSW 11.3 km/h 19.3 km/h 53 % 0 mm 113 W/m2
20:06 17.2 °C 7.8 °C 1006.7 hPa WSW 9.7 km/h 17.7 km/h 54 % 0 mm 49 W/m2
20:11 17.1 °C 7.7 °C 1006.7 hPa WSW 8 km/h 14.5 km/h 54 % 0 mm 26 W/m2
20:13 17 °C 7.9 °C 1006.7 hPa WSW 8 km/h 14.5 km/h 55 % 0 mm 26 W/m2
20:18 16.9 °C 8.1 °C 1006.7 hPa WSW 8 km/h 11.3 km/h 56 % 0 mm 25 W/m2
20:23 16.8 °C 7.9 °C 1006.7 hPa WSW 6.4 km/h 11.3 km/h 56 % 0 mm 25 W/m2
20:28 16.6 °C 8.1 °C 1006.7 hPa WSW 6.4 km/h 11.3 km/h 57 % 0 mm 23 W/m2
20:33 16.6 °C 8.3 °C 1006.7 hPa WSW 3.2 km/h 8 km/h 58 % 0 mm 19 W/m2
20:38 16.4 °C 8.4 °C 1007 hPa WSW 6.4 km/h 11.3 km/h 59 % 0 mm 18 W/m2
20:43 16.2 °C 8.4 °C 1007 hPa SW 6.4 km/h 11.3 km/h 60 % 0 mm 18 W/m2
20:48 16.1 °C 8.6 °C 1007 hPa SW 3.2 km/h 11.3 km/h 61 % 0 mm 16 W/m2
20:53 15.9 °C 8.6 °C 1007 hPa WSW 3.2 km/h 8 km/h 62 % 0 mm 14 W/m2
20:58 15.7 °C 8.7 °C 1007 hPa SW 4.8 km/h 9.7 km/h 63 % 0 mm 11 W/m2
21:03 15.5 °C 8.5 °C 1007 hPa SW 6.4 km/h 11.3 km/h 63 % 0 mm 11 W/m2
21:08 15.3 °C 8.3 °C 1007.3 hPa SW 8 km/h 12.9 km/h 63 % 0 mm 9 W/m2
21:10 15.2 °C 8.2 °C 1007.3 hPa SW 8 km/h 12.9 km/h 63 % 0 mm 7 W/m2
21:15 15.1 °C 8.3 °C 1007.3 hPa WSW 6.4 km/h 12.9 km/h 64 % 0 mm 7 W/m2
21:20 15 °C 8.2 °C 1007.3 hPa WSW 4.8 km/h 11.3 km/h 64 % 0 mm 5 W/m2
21:25 14.8 °C 8.3 °C 1007.3 hPa WSW 3.2 km/h 9.7 km/h 65 % 0 mm 0 W/m2
21:30 14.7 °C 8.4 °C 1007.3 hPa WSW 1.6 km/h 6.4 km/h 66 % 0 mm 0 W/m2
21:35 14.6 °C 8.3 °C 1007.7 hPa SW 4.8 km/h 25.7 km/h 66 % 0 mm 0 W/m2
21:40 14.5 °C 8.4 °C 1007.7 hPa SW 9.7 km/h 25.7 km/h 67 % 0 mm 0 W/m2
21:45 14.4 °C 8.6 °C 1007.7 hPa SW 11.3 km/h 20.9 km/h 68 % 0 mm 0 W/m2
21:50 14.3 °C 8.7 °C 1007.3 hPa WSW 9.7 km/h 20.9 km/h 69 % 0 mm 0 W/m2
21:55 14.3 °C 8.9 °C 1007.3 hPa WSW 8 km/h 17.7 km/h 70 % 0 mm 0 W/m2
22:00 14.3 °C 8.9 °C 1007.7 hPa WSW 8 km/h 17.7 km/h 70 % 0 mm 0 W/m2
22:05 14.3 °C 9.1 °C 1007.3 hPa WSW 8 km/h 16.1 km/h 71 % 0 mm 0 W/m2
22:10 14.2 °C 9.2 °C 1007.3 hPa WSW 8 km/h 16.1 km/h 72 % 0 mm 0 W/m2
22:15 14.2 °C 9.2 °C 1007.3 hPa WSW 8 km/h 14.5 km/h 72 % 0 mm 0 W/m2
22:20 14.2 °C 9.4 °C 1007.3 hPa WSW 8 km/h 11.3 km/h 73 % 0 mm 0 W/m2
22:25 14.2 °C 9.4 °C 1007.3 hPa SW 6.4 km/h 12.9 km/h 73 % 0 mm 0 W/m2
22:30 14.1 °C 9.6 °C 1007.3 hPa SW 6.4 km/h 12.9 km/h 74 % 0 mm 0 W/m2
22:35 14.1 °C 9.6 °C 1007.3 hPa WSW 6.4 km/h 11.3 km/h 74 % 0 mm 0 W/m2
22:40 13.9 °C 9.3 °C 1007.3 hPa SW 4.8 km/h 9.7 km/h 74 % 0 mm 0 W/m2
22:45 13.8 °C 9.2 °C 1007.3 hPa WSW 6.4 km/h 9.7 km/h 74 % 0 mm 0 W/m2
22:50 13.7 °C 9.2 °C 1007.3 hPa WSW 4.8 km/h 9.7 km/h 74 % 0 mm 0 W/m2
22:55 13.6 °C 9.2 °C 1007.3 hPa SW 4.8 km/h 11.3 km/h 75 % 0 mm 0 W/m2
23:00 13.4 °C 9.1 °C 1007.3 hPa SW 6.4 km/h 11.3 km/h 75 % 0 mm 0 W/m2
23:05 13.3 °C 9.2 °C 1007.3 hPa SSW 4.8 km/h 9.7 km/h 76 % 0 mm 0 W/m2
23:10 13.3 °C 9.2 °C 1007.3 hPa SSW 3.2 km/h 8 km/h 76 % 0 mm 0 W/m2
23:15 13.2 °C 9.1 °C 1007.3 hPa SW 1.6 km/h 8 km/h 76 % 0 mm 0 W/m2
23:20 13.1 °C 8.9 °C 1007.3 hPa SW 3.2 km/h 9.7 km/h 76 % 0 mm 0 W/m2
23:25 13 °C 9.1 °C 1007.7 hPa SW 6.4 km/h 11.3 km/h 77 % 0 mm 0 W/m2
23:30 12.9 °C 8.9 °C 1007.3 hPa SW 6.4 km/h 12.9 km/h 77 % 0 mm 0 W/m2
23:35 12.9 °C 9.2 °C 1007.3 hPa SSW 8 km/h 14.5 km/h 78 % 0 mm 0 W/m2
23:40 12.9 °C 8.9 °C 1007.3 hPa SSW 8 km/h 16.1 km/h 77 % 0 mm 0 W/m2
23:45 12.9 °C 8.9 °C 1007.3 hPa SSW 8 km/h 16.1 km/h 77 % 0 mm 0 W/m2
23:50 13 °C 9.1 °C 1007.3 hPa SSW 6.4 km/h 12.9 km/h 77 % 0 mm 0 W/m2
23:55 13 °C 9.1 °C 1007.3 hPa SSW 6.4 km/h 11.3 km/h 77 % 0 mm 0 W/m2
Delerius-Weather
Compliments of Weather Underground - 2.25 mb

Data updates at regular intervals.